aviador You're here:

KGCC Decoded Metar

GILLETTE in WY, USA
Report Time2018-02-22 11:53:00
UTC Time2018-02-22 12:30:35
Flight Rules vfr VFR
Wind110° at 04 kt
W.Decomp.*RWY 16: 1.9 kt HW 3.5 kt LCW
RWY 03: 1.5 kt HW 3.7 kt RCW
W.Rank110° ranks 33
Current wind is below 110° avg. (5.8)
Visibility9999 m
Phenomena:N/A
Clouds:N/A
Expected CloudBase > 1,600 ft AGL from Temp-Dew spread
CeilingNone
Temp-19°C (ISA -25)
Dew Point-23°C (71% RH)
AAT-24.1°C
QNH1017 hPa
Density Alt1,017 ft
Elevation4,331 ft
Report Wrong Elevation
Raw Report
METAR KGCC 221153Z AUTO 11004KT 10SM CLR M19/M23 A3003 RMK AO2 SLP253
T11941233 11100 21200 55005=

Extra information for KGCC:More info

Metar Taf Metar & Taf Last 4 Metars F.Rules Stats Wind Profile Meteogram Temp Stats Airport Information Weather charts Add Link Nearby VenuesMetar ALERT Operation Metar Decoded Social comments

AIRNAV info for KGCC